Time;durP1;ratioP1;P1;durP2;ratioP2;P2;SDS_P1;SDS_P2;PMS_P1;PMS_P2;Temp;Humidity;BMP_temperature;BMP_pressure;BME280_temperature;BME280_humidity;BME280_pressure;Samples;Min_cycle;Max_cycle;Signal;HPM_P1;HPM_P2
2022/08/07 00:02:00;;;;;;;8.17;4.67;;;;;;;12.75;82.21;102533.94;5007110;28;20144;-83
2022/08/07 00:04:25;;;;;;;7.43;4.80;;;;;;;12.73;82.96;102533.31;5007158;28;20144;-82
2022/08/07 00:06:51;;;;;;;6.73;4.60;;;;;;;12.70;82.57;102530.09;5006840;28;20042;-81
2022/08/07 00:09:16;;;;;;;5.27;4.77;;;;;;;12.65;82.83;102526.06;5006071;28;20038;-81
2022/08/07 00:11:41;;;;;;;7.57;4.93;;;;;;;12.63;83.28;102532.72;4987792;28;20038;-81
2022/08/07 00:14:07;;;;;;;4.90;4.30;;;;;;;12.61;84.10;102529.34;5006318;28;20045;-81
2022/08/07 00:16:32;;;;;;;11.40;4.73;;;;;;;12.56;84.52;102524.44;5006693;28;20061;-81
2022/08/07 00:18:57;;;;;;;6.17;4.67;;;;;;;12.46;83.88;102518.44;4993932;28;20034;-82
2022/08/07 00:21:23;;;;;;;8.97;5.07;;;;;;;12.48;84.15;102524.53;5007423;28;20534;-81
2022/08/07 00:24:10;;;;;;;6.70;4.57;;;;;;;12.59;83.22;102517.78;5006713;28;20049;-82
2022/08/07 00:26:36;;;;;;;5.30;4.77;;;;;;;12.48;83.81;102519.94;5007153;28;20120;-82
2022/08/07 00:29:01;;;;;;;6.37;5.10;;;;;;;12.35;84.17;102518.84;5006555;28;20363;-81
2022/08/07 00:31:26;;;;;;;7.53;4.83;;;;;;;12.44;83.99;102520.47;5006923;28;20065;-82
2022/08/07 00:33:52;;;;;;;5.63;4.87;;;;;;;12.44;83.58;102513.19;4994163;28;20096;-81
2022/08/07 00:36:17;;;;;;;7.17;4.87;;;;;;;12.29;83.78;102505.00;5005922;28;20065;-82
2022/08/07 00:38:42;;;;;;;6.07;4.87;;;;;;;12.33;83.89;102505.44;5005987;28;20045;-83
2022/08/07 00:41:08;;;;;;;5.80;4.80;;;;;;;12.24;84.13;102501.97;5005436;28;20037;-82
2022/08/07 00:43:33;;;;;;;8.33;5.67;;;;;;;12.19;84.70;102498.09;5006401;28;20044;-82
2022/08/07 00:46:00;;;;;;;7.27;5.23;;;;;;;12.15;85.09;102497.63;5006794;28;20042;-82
2022/08/07 00:48:31;;;;;;;7.20;5.40;;;;;;;12.14;85.31;102496.78;5006186;28;20104;-83
2022/08/07 00:50:57;;;;;;;6.00;5.00;;;;;;;12.05;84.94;102489.72;5006575;28;20044;-83
2022/08/07 00:53:22;;;;;;;5.70;5.10;;;;;;;12.10;84.76;102500.03;5006159;28;20033;-82
2022/08/07 00:55:48;;;;;;;6.77;5.20;;;;;;;12.15;84.50;102498.44;4968179;28;20042;-83
2022/08/07 00:58:17;;;;;;;7.93;5.57;;;;;;;12.12;85.05;102495.28;5006288;28;20383;-83
2022/08/07 01:00:43;;;;;;;6.27;5.20;;;;;;;12.11;84.90;102493.56;5005435;28;20069;-82
2022/08/07 01:03:09;;;;;;;7.20;5.67;;;;;;;12.01;85.71;102491.09;4977879;28;20132;-81
2022/08/07 01:05:34;;;;;;;6.43;5.47;;;;;;;11.94;86.11;102490.97;4986976;28;20041;-82
2022/08/07 01:08:00;;;;;;;10.37;6.00;;;;;;;11.90;85.91;102489.63;5005329;28;20422;-83
2022/08/07 01:10:26;;;;;;;8.23;5.63;;;;;;;11.90;86.37;102489.63;5006392;28;20045;-82
2022/08/07 01:12:52;;;;;;;6.73;5.20;;;;;;;11.89;85.80;102485.22;5005471;28;20508;-82
2022/08/07 01:15:17;;;;;;;6.07;4.87;;;;;;;11.92;85.55;102484.84;5005729;28;20041;-82
2022/08/07 01:17:43;;;;;;;6.93;5.70;;;;;;;11.79;85.83;102468.28;5006439;28;20033;-84
2022/08/07 01:20:11;;;;;;;8.67;5.70;;;;;;;11.82;86.36;102485.09;5005253;28;20029;-82
2022/08/07 01:22:38;;;;;;;7.77;5.93;;;;;;;11.80;85.85;102478.13;5005751;28;20046;-83
2022/08/07 01:25:04;;;;;;;7.70;6.03;;;;;;;11.78;86.52;102469.34;5005610;28;20651;-82
2022/08/07 01:27:30;;;;;;;8.77;5.80;;;;;;;11.65;87.25;102464.47;4985542;28;20054;-82
2022/08/07 01:29:55;;;;;;;18.53;6.43;;;;;;;11.71;87.45;102474.66;5006035;28;20119;-82
2022/08/07 01:32:21;;;;;;;8.90;6.10;;;;;;;11.66;87.09;102472.44;5005965;28;20048;-82
2022/08/07 01:34:47;;;;;;;8.27;5.83;;;;;;;11.71;86.90;102468.34;4985117;28;20037;-82
2022/08/07 01:37:16;;;;;;;7.33;5.77;;;;;;;11.60;86.81;102465.03;4986395;28;20041;-83
2022/08/07 01:39:42;;;;;;;6.70;5.83;;;;;;;11.52;86.52;102469.66;5005499;28;20100;-82
2022/08/07 01:42:07;;;;;;;6.53;5.83;;;;;;;11.54;86.72;102471.16;4988017;28;20402;-81
2022/08/07 01:44:33;;;;;;;8.17;5.43;;;;;;;11.53;86.60;102474.06;4986497;28;20037;-82
2022/08/07 01:46:58;;;;;;;7.20;5.90;;;;;;;11.46;86.62;102460.34;4985919;28;21458;-83
2022/08/07 01:49:24;;;;;;;8.57;5.87;;;;;;;11.60;86.42;102462.31;5005478;28;20414;-82
2022/08/07 01:51:50;;;;;;;7.10;5.70;;;;;;;11.51;86.39;102465.25;5004255;28;20095;-82
2022/08/07 01:54:19;;;;;;;7.53;6.07;;;;;;;11.45;86.68;102464.09;5005277;28;20042;-82
2022/08/07 01:56:50;;;;;;;6.83;5.70;;;;;;;11.39;86.71;102464.81;5004400;28;20413;-84
2022/08/07 01:59:44;;;;;;;7.80;5.50;;;;;;;11.52;86.37;102466.94;5005954;28;20322;-82
2022/08/07 02:02:19;;;;;;;7.28;5.78;;;;;;;11.41;86.67;102462.75;4977137;28;20638;-82
2022/08/07 02:04:52;;;;;;;7.10;5.57;;;;;;;11.41;86.73;102462.75;4987921;28;20063;-83
2022/08/07 02:07:20;;;;;;;6.60;6.00;;;;;;;11.30;86.90;102458.56;5004081;28;20247;-82
2022/08/07 02:09:50;;;;;;;7.33;6.20;;;;;;;11.39;86.63;102462.09;5004663;28;20119;-82
2022/08/07 02:12:17;;;;;;;8.87;6.37;;;;;;;11.35;86.91;102467.03;5005358;28;20420;-83
2022/08/07 02:14:45;;;;;;;8.73;6.57;;;;;;;11.27;87.44;102462.50;4987575;28;20072;-82
2022/08/07 02:17:13;;;;;;;7.67;6.53;;;;;;;11.27;87.53;102461.63;5004765;28;20033;-82
2022/08/07 02:19:42;;;;;;;10.00;6.90;;;;;;;11.19;88.10;102459.81;4985840;28;20030;-82
2022/08/07 02:22:10;;;;;;;8.30;6.80;;;;;;;11.31;87.90;102458.41;5004775;28;20044;-82
2022/08/07 02:24:35;;;;;;;8.47;6.90;;;;;;;11.34;87.65;102456.34;5004553;28;20045;-82
2022/08/07 02:27:01;;;;;;;8.20;7.00;;;;;;;11.20;87.82;102450.66;4970207;28;20053;-83
2022/08/07 02:29:29;;;;;;;9.80;7.23;;;;;;;11.26;88.13;102449.94;4985584;28;20069;-82
2022/08/07 02:31:55;;;;;;;8.90;6.97;;;;;;;11.25;88.37;102456.41;5004088;28;20041;-83
2022/08/07 02:34:20;;;;;;;11.17;7.40;;;;;;;11.22;88.60;102445.03;5004625;28;20069;-82
2022/08/07 02:36:47;;;;;;;10.90;7.80;;;;;;;11.26;88.58;102454.50;4984928;28;20113;-82
2022/08/07 02:39:13;;;;;;;12.00;7.97;;;;;;;11.13;89.56;102450.50;4985237;28;20584;-82
2022/08/07 02:41:38;;;;;;;9.90;7.30;;;;;;;11.25;88.74;102448.25;5004017;28;20042;-82
2022/08/07 02:44:04;;;;;;;13.23;8.20;;;;;;;11.31;89.02;102447.56;5004308;28;20044;-83
2022/08/07 02:46:32;;;;;;;9.47;7.60;;;;;;;11.13;88.87;102447.78;5005048;28;20035;-83
2022/08/07 02:49:29;;;;;;;11.90;8.03;;;;;;;11.17;89.63;102451.00;4986631;28;20049;-82
2022/08/07 02:51:57;;;;;;;10.53;8.03;;;;;;;11.08;89.20;102452.06;5004410;28;20485;-83
2022/08/07 02:54:26;;;;;;;9.87;7.53;;;;;;;11.09;89.74;102443.75;5005217;28;20037;-82
2022/08/07 02:56:53;;;;;;;12.20;8.30;;;;;;;11.05;90.38;102438.84;5004266;28;20044;-83
2022/08/07 02:59:21;;;;;;;11.80;8.63;;;;;;;10.98;90.18;102444.13;5004415;28;20038;-83
2022/08/07 03:01:47;;;;;;;10.90;8.40;;;;;;;10.94;89.66;102440.91;4989250;28;20034;-82
2022/08/07 03:04:13;;;;;;;11.10;8.10;;;;;;;10.92;89.64;102434.84;4987552;28;20476;-83
2022/08/07 03:06:41;;;;;;;11.07;8.07;;;;;;;10.92;89.80;102432.13;5007803;28;20038;-82
2022/08/07 03:09:07;;;;;;;11.87;8.30;;;;;;;10.88;89.70;102440.75;4987510;28;20068;-82
2022/08/07 03:11:35;;;;;;;8.80;7.83;;;;;;;10.91;89.28;102437.72;4988173;28;21009;-83
2022/08/07 03:14:03;;;;;;;14.33;7.60;;;;;;;10.99;88.65;102445.84;5008464;28;20050;-83
2022/08/07 03:16:33;;;;;;;10.40;8.23;;;;;;;10.93;89.51;102438.38;5007862;28;20029;-83
2022/08/07 03:18:59;;;;;;;10.73;9.00;;;;;;;10.84;90.09;102437.59;4987865;28;20037;-83
2022/08/07 03:21:26;;;;;;;11.27;8.80;;;;;;;10.86;90.21;102440.13;4989373;28;20045;-83
2022/08/07 03:23:57;;;;;;;10.17;8.57;;;;;;;10.80;90.60;102433.53;4973633;28;20593;-83
2022/08/07 03:26:27;;;;;;;12.60;8.90;;;;;;;10.80;90.11;102438.94;5008409;28;20172;-83
2022/08/07 03:28:54;;;;;;;13.17;8.87;;;;;;;10.88;89.77;102436.22;5007080;28;20560;-82
2022/08/07 03:31:21;;;;;;;11.80;8.70;;;;;;;10.85;89.65;102444.66;5007883;28;20065;-82
2022/08/07 03:33:57;;;;;;;11.20;8.63;;;;;;;10.82;89.81;102436.91;4988379;28;20615;-82
2022/08/07 03:36:25;;;;;;;11.73;8.77;;;;;;;10.91;89.66;102435.03;5008207;28;20033;-83
2022/08/07 03:39:10;;;;;;;12.37;8.60;;;;;;;10.89;89.74;102432.47;5007893;28;20401;-82
2022/08/07 03:41:36;;;;;;;11.00;8.20;;;;;;;10.77;89.50;102431.13;5007343;28;20051;-83
2022/08/07 03:44:02;;;;;;;14.33;8.77;;;;;;;10.82;89.56;102431.47;5007577;28;20488;-83
2022/08/07 03:46:29;;;;;;;13.07;9.60;;;;;;;10.72;90.45;102430.84;5008362;28;20604;-82
2022/08/07 03:48:55;;;;;;;13.03;9.10;;;;;;;10.77;90.22;102423.00;5007437;28;20490;-82
2022/08/07 03:51:21;;;;;;;13.87;9.40;;;;;;;10.74;91.09;102424.22;5007575;28;20069;-83
2022/08/07 03:53:48;;;;;;;11.03;8.40;;;;;;;10.71;90.55;102429.97;5007672;28;20118;-82
2022/08/07 03:56:19;;;;;;;11.87;8.87;;;;;;;10.70;91.03;102431.00;4987096;28;21422;-82
2022/08/07 03:58:45;;;;;;;14.30;9.10;;;;;;;10.73;91.35;102435.22;4994724;28;21470;-83
2022/08/07 04:01:12;;;;;;;12.67;9.47;;;;;;;10.68;91.13;102443.88;5003726;28;20038;-83
2022/08/07 04:03:38;;;;;;;13.43;9.00;;;;;;;10.64;90.94;102445.25;5007224;28;20389;-82
2022/08/07 04:06:09;;;;;;;14.53;9.50;;;;;;;10.61;91.20;102448.31;4987635;28;20368;-82
2022/08/07 04:08:35;;;;;;;13.00;9.13;;;;;;;10.61;90.93;102449.16;5006973;28;20044;-84
2022/08/07 04:11:01;;;;;;;11.53;8.57;;;;;;;10.67;90.19;102454.91;5007640;28;20393;-83
2022/08/07 04:13:27;;;;;;;13.57;8.40;;;;;;;10.64;90.22;102450.69;4986246;28;20049;-82
2022/08/07 04:15:53;;;;;;;9.40;8.10;;;;;;;10.54;89.89;102450.88;5006860;28;20452;-82
2022/08/07 04:18:19;;;;;;;14.77;9.40;;;;;;;10.59;90.83;102453.91;4971108;28;20069;-83
2022/08/07 04:20:45;;;;;;;13.20;9.37;;;;;;;10.52;91.17;102461.03;5006495;28;20458;-83
2022/08/07 04:23:12;;;;;;;11.40;9.10;;;;;;;10.46;91.48;102461.72;5006811;28;20030;-83
2022/08/07 04:25:40;;;;;;;12.43;9.17;;;;;;;10.52;90.93;102469.16;5006538;28;20551;-82
2022/08/07 04:28:06;;;;;;;13.30;8.77;;;;;;;10.50;91.37;102465.78;4987228;28;20281;-82
2022/08/07 04:30:34;;;;;;;14.90;9.93;;;;;;;10.49;91.96;102466.78;5005841;28;20619;-82
2022/08/07 04:33:00;;;;;;;14.70;10.00;;;;;;;10.51;93.10;102461.19;4990034;28;20076;-82
2022/08/07 04:35:26;;;;;;;17.63;10.87;;;;;;;10.47;93.68;102466.09;5006894;28;20042;-83
2022/08/07 04:37:52;;;;;;;15.53;10.37;;;;;;;10.49;93.81;102464.09;5006575;28;20037;-82
2022/08/07 04:40:18;;;;;;;15.23;10.53;;;;;;;10.52;93.99;102461.03;5006389;28;20091;-83
2022/08/07 04:42:43;;;;;;;14.47;10.83;;;;;;;10.51;94.29;102463.91;4974356;28;20048;-83
2022/08/07 04:45:10;;;;;;;15.53;10.47;;;;;;;10.48;94.05;102462.38;4988005;28;20033;-83
2022/08/07 04:47:55;;;;;;;13.43;10.00;;;;;;;10.60;93.87;102465.59;5006806;28;20128;-83
2022/08/07 04:50:33;;;;;;;14.02;10.57;;;;;;;10.64;94.00;102464.22;5006709;28;20037;-83
2022/08/07 04:53:06;;;;;;;15.03;10.93;;;;;;;10.58;94.67;102468.47;5005870;28;20045;-83
2022/08/07 04:55:46;;;;;;;12.97;9.60;;;;;;;10.59;94.38;102470.19;5006805;28;20127;-83
2022/08/07 04:58:36;;;;;;;14.87;10.60;;;;;;;10.58;95.42;102473.91;5005307;28;20692;-83
2022/08/07 05:01:14;;;;;;;15.40;11.53;;;;;;;10.53;95.63;102465.44;5005470;28;20068;-84
2022/08/07 05:03:45;;;;;;;15.40;10.90;;;;;;;10.61;95.61;102467.28;4993320;28;20030;-84
2022/08/07 05:06:16;;;;;;;17.43;11.63;;;;;;;10.71;96.46;102480.66;5005084;28;20042;-84
2022/08/07 05:08:56;;;;;;;17.20;11.63;;;;;;;10.76;96.78;102468.25;4986113;28;20038;-83
2022/08/07 05:11:38;;;;;;;16.87;11.47;;;;;;;10.86;96.65;102475.38;5004897;28;21400;-83
2022/08/07 05:14:15;;;;;;;18.83;12.00;;;;;;;10.88;96.55;102471.47;5004796;28;20038;-84
2022/08/07 05:16:46;;;;;;;17.33;11.37;;;;;;;10.92;96.37;102477.34;5005938;28;20030;-84
2022/08/07 05:19:15;;;;;;;15.60;12.13;;;;;;;11.00;96.98;102474.63;5005936;28;20033;-82
2022/08/07 05:21:46;;;;;;;17.37;12.60;;;;;;;11.14;97.18;102473.91;5005094;28;20466;-83
2022/08/07 05:24:16;;;;;;;15.87;12.20;;;;;;;11.18;96.87;102485.25;5005652;28;20041;-82
2022/08/07 05:26:59;;;;;;;17.33;11.83;;;;;;;11.27;96.67;102483.34;4985432;28;20072;-84
2022/08/07 05:29:26;;;;;;;23.13;12.47;;;;;;;11.37;96.53;102481.28;4986560;28;20042;-83
2022/08/07 05:31:52;;;;;;;18.47;12.07;;;;;;;11.50;96.52;102494.25;4950693;28;20128;-82
2022/08/07 05:34:18;;;;;;;17.07;12.40;;;;;;;11.64;96.56;102498.94;4985877;28;20474;-82
2022/08/07 05:36:50;;;;;;;19.40;12.87;;;;;;;11.75;96.21;102489.56;4968097;28;20469;-83
2022/08/07 05:39:18;;;;;;;17.13;12.17;;;;;;;11.89;95.82;102496.06;4986287;28;20088;-82
2022/08/07 05:41:46;;;;;;;18.93;12.73;;;;;;;12.05;94.67;102495.16;4985374;28;20483;-83
2022/08/07 05:44:12;;;;;;;18.53;11.80;;;;;;;12.06;94.20;102498.69;4958305;28;20050;-82
2022/08/07 05:46:40;;;;;;;17.60;13.40;;;;;;;12.20;95.44;102495.22;4985966;28;20045;-82
2022/08/07 05:49:08;;;;;;;18.77;12.70;;;;;;;12.37;94.28;102495.91;4986482;28;20046;-83
2022/08/07 05:51:33;;;;;;;18.00;12.20;;;;;;;12.44;93.18;102490.56;4975421;28;20034;-82
2022/08/07 05:54:00;;;;;;;18.70;12.43;;;;;;;12.57;92.34;102496.22;4985148;28;20517;-83
2022/08/07 05:56:27;;;;;;;18.87;12.97;;;;;;;12.65;92.01;102498.88;4984968;28;20521;-83
2022/08/07 05:58:53;;;;;;;17.43;13.00;;;;;;;12.79;91.98;102490.91;4983714;28;20494;-82
2022/08/07 06:01:19;;;;;;;16.37;12.53;;;;;;;12.87;91.53;102496.28;4983179;28;20034;-82
2022/08/07 06:03:51;;;;;;;15.67;11.60;;;;;;;12.97;90.66;102504.16;4965556;28;20057;-84
2022/08/07 06:06:18;;;;;;;17.83;11.40;;;;;;;13.02;90.08;102496.28;4982708;28;20691;-82
2022/08/07 06:08:43;;;;;;;16.97;11.73;;;;;;;13.20;89.99;102497.78;4982102;28;20042;-83
2022/08/07 06:11:11;;;;;;;18.30;12.30;;;;;;;13.32;91.22;102493.53;4982985;28;20096;-82
2022/08/07 06:13:36;;;;;;;15.97;11.40;;;;;;;13.49;88.46;102497.75;4983022;28;20026;-83
2022/08/07 06:16:05;;;;;;;17.83;12.20;;;;;;;13.57;87.53;102502.25;4982978;28;20038;-85
2022/08/07 06:18:31;;;;;;;16.13;11.97;;;;;;;13.66;88.11;102500.25;4983937;28;20100;-84
2022/08/07 06:20:59;;;;;;;16.10;11.60;;;;;;;13.82;87.99;102505.47;4982296;28;20030;-83
2022/08/07 06:23:24;;;;;;;18.97;12.70;;;;;;;13.97;87.85;102510.88;4982568;28;20049;-85
2022/08/07 06:25:50;;;;;;;16.53;11.50;;;;;;;14.09;86.43;102510.34;4982683;28;20037;-83
2022/08/07 06:28:15;;;;;;;15.93;11.47;;;;;;;14.15;85.51;102509.56;4992306;28;20484;-84
2022/08/07 06:30:41;;;;;;;19.43;12.80;;;;;;;14.24;85.77;102508.41;4984106;28;20183;-84
2022/08/07 06:33:07;;;;;;;18.30;12.03;;;;;;;14.33;85.28;102506.38;5002029;28;20612;-82
2022/08/07 06:35:35;;;;;;;17.93;11.60;;;;;;;14.58;84.31;102508.66;5001515;28;20243;-83
2022/08/07 06:38:00;;;;;;;17.50;11.90;;;;;;;14.71;83.60;102503.34;4994858;28;20038;-83
2022/08/07 06:40:29;;;;;;;15.97;11.50;;;;;;;14.80;82.80;102502.16;5001762;28;20048;-83
2022/08/07 06:42:56;;;;;;;19.17;11.70;;;;;;;14.98;82.15;102496.19;4990962;28;20030;-82
2022/08/07 06:45:22;;;;;;;16.20;11.63;;;;;;;14.95;81.53;102496.59;4965863;28;20077;-84
2022/08/07 06:47:48;;;;;;;16.30;11.23;;;;;;;15.20;81.03;102498.81;5002585;28;20040;-83
2022/08/07 06:50:15;;;;;;;17.30;11.33;;;;;;;15.21;80.75;102491.50;5002954;28;20040;-82
2022/08/07 06:52:54;;;;;;;19.47;11.87;;;;;;;15.39;80.42;102480.00;5002303;28;20030;-83
2022/08/07 06:55:26;;;;;;;16.70;11.30;;;;;;;15.61;80.15;102480.69;4980844;28;20397;-82
2022/08/07 06:57:56;;;;;;;17.67;11.73;;;;;;;15.64;78.00;102483.88;5002157;28;20154;-83
2022/08/07 07:00:21;;;;;;;16.63;10.80;;;;;;;15.84;77.21;102477.63;5002274;28;20048;-83
2022/08/07 07:02:47;;;;;;;15.67;10.47;;;;;;;16.00;76.74;102485.44;5003846;28;20406;-85
2022/08/07 07:05:20;;;;;;;15.37;10.60;;;;;;;16.23;75.74;102483.38;5004535;28;20397;-83
2022/08/07 07:07:45;;;;;;;13.73;9.93;;;;;;;16.33;75.03;102484.66;4983641;28;20237;-83
2022/08/07 07:10:13;;;;;;;15.63;10.50;;;;;;;16.35;75.00;102481.69;5004915;28;20102;-83
2022/08/07 07:12:54;;;;;;;15.93;10.80;;;;;;;16.55;75.63;102492.63;4984741;28;20045;-82
2022/08/07 07:15:33;;;;;;;15.67;10.43;;;;;;;16.62;74.62;102488.00;4999503;28;20026;-83
2022/08/07 07:18:12;;;;;;;15.87;9.87;;;;;;;16.77;73.33;102489.63;4981916;28;20033;-83
2022/08/07 07:20:48;;;;;;;13.53;9.77;;;;;;;16.87;72.07;102487.31;4979853;28;20309;-82
2022/08/07 07:23:14;;;;;;;16.40;10.50;;;;;;;16.98;71.20;102492.16;4999704;28;20709;-84
2022/08/07 07:25:42;;;;;;;14.33;10.67;;;;;;;16.99;71.26;102502.06;5001040;28;20038;-84
2022/08/07 07:28:24;;;;;;;14.60;10.80;;;;;;;17.19;72.16;102488.31;5000180;28;20063;-83
2022/08/07 07:30:58;;;;;;;13.90;10.10;;;;;;;17.44;70.36;102493.03;5000249;28;20033;-83
2022/08/07 07:33:27;;;;;;;14.93;9.77;;;;;;;17.35;66.94;102489.72;4999931;28;20073;-83
2022/08/07 07:35:54;;;;;;;13.77;9.80;;;;;;;17.60;67.73;102486.22;4981115;28;20045;-84
2022/08/07 07:38:22;;;;;;;13.17;9.03;;;;;;;17.80;68.25;102488.00;4999065;28;20710;-83
2022/08/07 07:40:49;;;;;;;11.23;8.43;;;;;;;17.97;67.07;102494.69;5000967;28;20037;-83
2022/08/07 07:43:16;;;;;;;11.47;7.90;;;;;;;18.10;65.23;102477.31;4982092;28;20128;-83
2022/08/07 07:45:45;;;;;;;12.97;8.33;;;;;;;18.08;64.71;102479.41;5001889;28;20701;-83
2022/08/07 07:48:13;;;;;;;11.47;8.13;;;;;;;18.32;64.35;102476.91;5002111;28;20037;-83
2022/08/07 07:50:42;;;;;;;13.97;8.97;;;;;;;18.33;64.70;102482.19;5005317;28;20048;-83
2022/08/07 07:53:09;;;;;;;12.40;8.20;;;;;;;18.35;63.96;102469.06;5004865;28;20061;-83
2022/08/07 07:55:36;;;;;;;12.67;8.87;;;;;;;18.42;64.43;102469.00;5005351;28;20030;-83
2022/08/07 07:58:03;;;;;;;14.23;9.70;;;;;;;18.40;64.83;102468.41;5006660;28;20033;-85
2022/08/07 08:00:30;;;;;;;14.70;9.20;;;;;;;18.56;64.62;102477.94;5006715;28;20046;-83
2022/08/07 08:03:02;;;;;;;12.80;8.57;;;;;;;18.67;63.21;102477.22;5007200;28;20386;-83
2022/08/07 08:05:28;;;;;;;12.13;9.00;;;;;;;18.71;63.55;102477.59;5007046;28;20038;-83
2022/08/07 08:07:53;;;;;;;14.90;8.68;;;;;;;18.85;63.47;102479.13;5006345;28;20399;-85
2022/08/07 08:10:20;;;;;;;13.20;7.97;;;;;;;18.92;63.63;102481.84;4988364;28;20042;-82
2022/08/07 08:12:47;;;;;;;12.00;7.82;;;;;;;19.13;62.53;102476.97;5006749;28;21487;-82
2022/08/07 08:15:13;;;;;;;11.30;7.90;;;;;;;19.39;62.57;102467.53;5007341;28;20449;-82
2022/08/07 08:17:40;;;;;;;12.02;7.60;;;;;;;19.25;61.66;102477.88;5007131;28;20041;-82
2022/08/07 08:20:07;;;;;;;12.63;7.40;;;;;;;19.36;61.87;102479.81;5006675;28;20133;-83
2022/08/07 08:28:15;;;;;;;9.65;6.72;;;;;;;19.76;59.93;102469.34;5006425;28;20151;-83
2022/08/07 08:30:42;;;;;;;11.80;6.70;;;;;;;19.81;57.79;102475.03;5005751;28;20124;-83
2022/08/07 08:33:14;;;;;;;9.95;7.03;;;;;;;19.91;57.88;102480.81;5006376;28;20041;-83
2022/08/07 08:35:42;;;;;;;11.10;6.93;;;;;;;19.87;56.55;102476.84;5006422;28;20040;-84
2022/08/07 08:38:11;;;;;;;10.90;6.68;;;;;;;20.15;55.95;102489.09;4985320;28;20065;-83
2022/08/07 08:40:43;;;;;;;8.27;6.47;;;;;;;20.59;55.10;102489.63;5006527;28;20080;-83
2022/08/07 08:43:46;;;;;;;10.98;6.40;;;;;;;20.89;55.22;102485.94;5005725;28;20041;-82
2022/08/07 08:46:23;;;;;;;11.25;5.90;;;;;;;21.06;53.75;102475.81;5006178;28;20045;-83
2022/08/07 08:49:05;;;;;;;9.73;5.90;;;;;;;21.27;54.83;102480.94;5006863;28;20456;-82
2022/08/07 08:51:36;;;;;;;11.30;5.90;;;;;;;21.64;52.38;102480.59;5006805;28;20029;-82
2022/08/07 08:54:20;;;;;;;8.77;5.72;;;;;;;21.88;51.55;102481.28;5005757;28;20445;-83
2022/08/07 08:56:48;;;;;;;6.22;3.90;;;;;;;21.94;48.27;102480.31;5006390;28;20470;-83
2022/08/07 08:59:25;;;;;;;7.15;4.40;;;;;;;22.01;48.80;102478.22;5005817;28;20041;-82
2022/08/07 09:01:54;;;;;;;5.15;4.40;;;;;;;22.19;47.43;102479.06;4995337;28;20087;-82
2022/08/07 09:04:44;;;;;;;8.20;4.50;;;;;;;22.58;48.61;102476.41;5006777;28;20046;-84
2022/08/07 09:07:18;;;;;;;6.07;4.50;;;;;;;22.90;47.16;102472.97;5006448;28;20030;-82
2022/08/07 09:09:55;;;;;;;6.15;4.35;;;;;;;23.28;48.22;102476.78;5006192;28;20033;-82
2022/08/07 09:12:51;;;;;;;7.88;4.70;;;;;;;23.81;46.56;102474.31;4986099;28;20038;-82
2022/08/07 09:15:49;;;;;;;5.68;4.13;;;;;;;24.30;43.72;102481.69;4985691;28;20059;-83
2022/08/07 09:18:56;;;;;;;6.85;4.13;;;;;;;24.55;47.05;102471.91;5006868;28;20021;-81
2022/08/07 09:21:49;;;;;;;6.28;4.05;;;;;;;24.81;43.53;102474.84;4986311;28;20032;-82
2022/08/07 09:24:33;;;;;;;5.35;3.50;;;;;;;24.97;44.35;102468.28;5006560;28;20034;-82
2022/08/07 09:27:01;;;;;;;5.95;3.60;;;;;;;25.12;41.03;102470.28;5005786;28;20116;-82
2022/08/07 09:29:55;;;;;;;6.65;4.47;;;;;;;25.47;42.41;102463.19;5006044;28;20038;-83
2022/08/07 09:32:56;;;;;;;4.05;3.47;;;;;;;25.71;42.07;102468.25;4983291;28;20678;-82
2022/08/07 09:35:41;;;;;;;6.30;3.55;;;;;;;25.88;42.34;102466.03;4988387;28;20544;-82
2022/08/07 09:38:30;;;;;;;4.50;3.33;;;;;;;26.09;39.88;102458.56;5006112;28;20056;-81
2022/08/07 09:41:15;;;;;;;4.30;3.17;;;;;;;26.20;38.21;102458.56;5004692;28;20083;-82
2022/08/07 09:44:02;;;;;;;4.00;3.20;;;;;;;25.77;38.53;102464.34;4986181;28;20041;-82
2022/08/07 09:46:37;;;;;;;6.93;4.10;;;;;;;26.27;40.13;102461.88;4989860;28;20037;-84
2022/08/07 09:49:33;;;;;;;4.93;4.03;;;;;;;26.46;39.86;102467.69;5005610;28;20089;-84
2022/08/07 09:52:18;;;;;;;4.65;3.70;;;;;;;25.60;37.44;102456.28;4985734;28;20609;-84
2022/08/07 09:54:48;;;;;;;3.63;3.13;;;;;;;26.06;37.38;102450.78;5005233;28;20128;-84
2022/08/07 09:57:54;;;;;;;5.78;3.58;;;;;;;26.45;38.15;102444.63;5005155;28;20071;-84
2022/08/07 10:00:23;;;;;;;5.57;3.47;;;;;;;26.10;37.12;102435.25;5005180;28;21956;-81
2022/08/07 10:03:19;;;;;;;4.82;3.85;;;;;;;26.60;37.52;102429.03;4986286;28;20033;-82
2022/08/07 10:05:59;;;;;;;4.07;3.20;;;;;;;26.63;37.32;102431.25;5005247;28;20041;-82
2022/08/07 10:08:43;;;;;;;4.80;3.08;;;;;;;27.14;36.94;102427.44;5004817;28;20515;-83
2022/08/07 10:11:44;;;;;;;5.43;3.50;;;;;;;26.96;35.68;102429.75;5004941;28;20037;-82
2022/08/07 10:14:40;;;;;;;6.20;3.47;;;;;;;27.00;36.76;102430.03;5004988;28;22178;-82
2022/08/07 10:17:27;;;;;;;5.35;3.42;;;;;;;27.17;36.65;102417.69;5005440;28;20033;-83
2022/08/07 10:20:15;;;;;;;4.45;3.30;;;;;;;27.52;35.40;102418.63;5004909;28;20040;-83
2022/08/07 10:22:49;;;;;;;5.95;3.80;;;;;;;26.71;36.16;102427.06;4987768;28;20044;-82
2022/08/07 10:25:35;;;;;;;5.60;3.22;;;;;;;27.29;36.29;102416.25;5004975;28;20103;-83
2022/08/07 10:28:22;;;;;;;3.53;3.22;;;;;;;27.06;35.35;102417.75;5005099;28;20100;-82
2022/08/07 10:31:13;;;;;;;5.20;3.10;;;;;;;27.21;35.76;102414.06;5004389;28;20400;-81
2022/08/07 10:33:54;;;;;;;3.97;3.15;;;;;;;27.39;35.06;102418.16;4951702;28;20045;-80
2022/08/07 10:36:41;;;;;;;4.20;3.20;;;;;;;27.84;34.72;102409.75;5003968;28;20041;-80
2022/08/07 10:39:21;;;;;;;3.63;3.20;;;;;;;27.69;33.83;102409.84;5004764;28;20068;-81
2022/08/07 10:42:01;;;;;;;4.05;3.00;;;;;;;28.09;33.57;102417.03;5004013;28;20033;-81
2022/08/07 10:44:38;;;;;;;4.55;2.63;;;;;;;26.89;33.68;102418.09;5005091;28;20128;-80
2022/08/07 10:47:35;;;;;;;5.03;3.00;;;;;;;27.29;35.63;102404.25;5004322;28;20144;-81
2022/08/07 10:50:15;;;;;;;3.92;3.10;;;;;;;27.33;33.36;102410.91;5004346;28;20168;-80
2022/08/07 10:52:43;;;;;;;5.70;2.85;;;;;;;27.22;33.91;102399.00;5004471;28;20041;-81
2022/08/07 10:55:35;;;;;;;3.17;2.80;;;;;;;27.49;33.32;102394.16;5004604;28;20034;-81
2022/08/07 10:58:25;;;;;;;3.67;2.70;;;;;;;27.25;33.65;102403.16;4987627;28;20142;-80
2022/08/07 11:01:25;;;;;;;3.28;2.75;;;;;;;27.45;34.18;102391.94;5004239;28;20038;-81
2022/08/07 11:03:59;;;;;;;3.55;3.15;;;;;;;27.94;33.09;102392.91;4989075;28;20046;-78
2022/08/07 11:06:46;;;;;;;5.90;2.90;;;;;;;28.32;32.60;102391.47;4984586;28;20563;-80
2022/08/07 11:09:18;;;;;;;6.43;2.72;;;;;;;28.08;31.79;102381.97;5004093;28;21051;-81
2022/08/07 11:11:55;;;;;;;5.28;2.70;;;;;;;28.40;32.22;102382.47;5002889;28;20130;-82
2022/08/07 11:14:32;;;;;;;4.00;2.60;;;;;;;28.22;30.99;102381.25;5003964;28;20029;-80
2022/08/07 11:17:13;;;;;;;3.17;2.65;;;;;;;28.05;32.40;102371.41;5003045;28;20108;-80
2022/08/07 11:19:51;;;;;;;5.45;2.90;;;;;;;27.32;31.79;102375.03;5003681;28;20539;-82
2022/08/07 11:22:25;;;;;;;5.22;2.78;;;;;;;27.22;32.25;102373.97;5005035;28;20033;-81
2022/08/07 11:25:15;;;;;;;5.30;3.05;;;;;;;27.98;32.47;102362.53;5007749;28;20601;-80
2022/08/07 11:28:07;;;;;;;3.95;2.97;;;;;;;27.78;30.44;102367.19;5007563;28;20050;-80
2022/08/07 11:30:50;;;;;;;5.05;2.85;;;;;;;27.58;29.81;102356.19;5007396;28;20065;-81
2022/08/07 11:33:23;;;;;;;3.17;2.67;;;;;;;27.56;32.00;102358.47;5007793;28;20056;-79
2022/08/07 11:35:55;;;;;;;;;;;;;;;28.68;30.99;102357.59;5008320;28;20037;-80
2022/08/07 11:38:34;;;;;;;3.63;2.75;;;;;;;28.24;32.30;102349.19;4987726;28;19921;-79
2022/08/07 11:41:13;;;;;;;6.70;3.00;;;;;;;27.52;31.69;102344.28;5006003;28;20033;-81
2022/08/07 11:43:52;;;;;;;4.07;2.78;;;;;;;27.75;32.15;102347.44;5007037;28;20496;-80
2022/08/07 11:46:40;;;;;;;3.70;2.78;;;;;;;27.44;32.72;102344.91;5006615;28;20037;-81
2022/08/07 11:49:20;;;;;;;3.25;2.90;;;;;;;26.66;31.38;102336.16;4965498;28;20067;-81